createdAt,value
2018-04-17T00:00:49.515Z,22.00
2018-04-17T00:01:49.533Z,25.30
2018-04-17T00:02:49.557Z,24.70
2018-04-17T00:03:49.569Z,19.10
2018-04-17T00:04:49.592Z,22.80
2018-04-17T00:05:49.616Z,21.10
2018-04-17T00:06:49.628Z,24.70
2018-04-17T00:07:49.646Z,23.20
2018-04-17T00:08:49.664Z,21.20
2018-04-17T00:09:49.681Z,25.60
2018-04-17T00:10:49.699Z,20.90
2018-04-17T00:11:49.720Z,21.30
2018-04-17T00:12:49.738Z,24.10
2018-04-17T00:13:49.756Z,21.20
2018-04-17T00:14:49.774Z,22.30
2018-04-17T00:15:49.792Z,22.90
2018-04-17T00:16:49.811Z,25.10
2018-04-17T00:17:49.829Z,19.10
2018-04-17T00:18:49.850Z,17.90
2018-04-17T00:19:49.867Z,25.10
2018-04-17T00:20:49.885Z,20.60
2018-04-17T00:21:49.911Z,22.70
2018-04-17T00:22:49.922Z,20.90
2018-04-17T00:23:49.941Z,19.50
2018-04-17T00:24:49.963Z,26.60
2018-04-17T00:25:49.976Z,22.60
2018-04-17T00:26:49.998Z,24.50
2018-04-17T00:27:50.017Z,21.30
2018-04-17T00:28:50.034Z,21.30
2018-04-17T00:29:50.053Z,23.40
2018-04-17T00:30:50.076Z,23.50
2018-04-17T00:31:50.091Z,21.20
2018-04-17T00:32:50.114Z,21.70
2018-04-17T00:33:50.126Z,20.60
2018-04-17T00:34:50.145Z,22.80
2018-04-17T00:35:50.163Z,24.20
2018-04-17T00:36:50.184Z,18.70
2018-04-17T00:37:50.200Z,20.00
2018-04-17T00:38:50.217Z,21.10
2018-04-17T00:39:50.239Z,18.40
2018-04-17T00:40:50.255Z,21.80
2018-04-17T00:41:50.273Z,21.70
2018-04-17T00:42:50.293Z,17.60
2018-04-17T00:43:50.311Z,18.80
2018-04-17T00:44:50.329Z,18.50
2018-04-17T00:45:50.346Z,22.10
2018-04-17T00:46:50.367Z,20.90
2018-04-17T00:47:50.390Z,22.00
2018-04-17T00:48:50.404Z,17.60
2018-04-17T00:49:50.422Z,19.30
2018-04-17T00:50:50.439Z,19.80
2018-04-17T00:51:50.461Z,19.60
2018-04-17T00:52:50.478Z,22.10
2018-04-17T00:53:50.497Z,25.60
2018-04-17T00:54:50.515Z,18.90
2018-04-17T00:55:50.533Z,19.90
2018-04-17T00:56:50.582Z,18.20
2018-04-17T00:57:50.569Z,19.10
2018-04-17T00:58:50.595Z,21.50
2018-04-17T00:59:50.608Z,16.90
2018-04-17T01:00:50.631Z,16.90
2018-04-17T01:01:50.644Z,21.10
2018-04-17T01:02:50.665Z,18.10
2018-04-17T01:03:50.684Z,20.20
2018-04-17T01:04:50.702Z,19.70
2018-04-17T01:05:50.718Z,18.70
2018-04-17T01:06:50.739Z,20.70
2018-04-17T01:07:50.756Z,18.70
2018-04-17T01:08:50.776Z,17.90
2018-04-17T01:09:50.792Z,16.90
2018-04-17T01:10:50.811Z,17.10
2018-04-17T01:11:50.831Z,18.10
2018-04-17T01:12:50.851Z,16.30
2018-04-17T01:13:50.865Z,16.70
2018-04-17T01:14:50.886Z,14.10
2018-04-17T01:15:50.902Z,19.60
2018-04-17T01:16:50.923Z,19.50
2018-04-17T01:17:50.942Z,14.90
2018-04-17T01:18:50.957Z,16.70
2018-04-17T01:19:50.977Z,16.40
2018-04-17T01:20:50.994Z,19.90
2018-04-17T01:21:51.011Z,19.10
2018-04-17T01:22:51.033Z,17.10
2018-04-17T01:23:51.050Z,20.00
2018-04-17T01:24:51.067Z,18.40
2018-04-17T01:25:51.092Z,19.90
2018-04-17T01:26:51.106Z,15.80
2018-04-17T01:27:51.123Z,23.10
2018-04-17T01:28:51.143Z,15.80
2018-04-17T01:29:51.164Z,18.90
2018-04-17T01:30:51.177Z,19.10
2018-04-17T01:31:51.202Z,20.10
2018-04-17T01:32:51.215Z,21.50
2018-04-17T01:33:51.233Z,15.60
2018-04-17T01:34:51.253Z,18.80
2018-04-17T01:35:51.272Z,16.80
2018-04-17T01:36:51.287Z,16.90
2018-04-17T01:37:51.306Z,20.40
2018-04-17T01:38:51.324Z,18.40
2018-04-17T01:39:51.342Z,20.00
2018-04-17T01:40:51.372Z,18.70
2018-04-17T01:41:51.378Z,19.50
2018-04-17T01:42:51.398Z,19.10
2018-04-17T01:43:51.426Z,19.70
2018-04-17T01:44:51.435Z,19.40
2018-04-17T01:45:51.453Z,17.60
2018-04-17T01:46:51.471Z,19.10
2018-04-17T01:47:51.495Z,23.20
2018-04-17T03:47:20.743Z,20.10
2018-04-17T03:48:20.730Z,34.20
2018-04-17T03:50:13.632Z,36.20
2018-04-17T03:51:13.637Z,34.50
2018-04-17T03:53:06.564Z,37.30
2018-04-17T03:54:06.553Z,37.70
2018-04-17T03:55:59.465Z,34.30
2018-04-17T03:56:59.473Z,34.30
2018-04-17T03:58:52.407Z,34.30
2018-04-17T03:59:52.397Z,31.80
2018-04-17T04:01:45.312Z,33.40
2018-04-17T04:02:45.341Z,32.70
2018-04-17T04:04:38.263Z,32.60
2018-04-17T04:05:38.251Z,31.20
2018-04-17T04:07:31.240Z,29.30
2018-04-17T04:08:31.179Z,28.50
2018-04-17T04:10:24.097Z,33.70
2018-04-17T04:11:24.108Z,30.10
2018-04-17T04:13:17.043Z,33.60
2018-04-17T04:14:17.034Z,34.90
2018-04-17T04:16:09.965Z,29.30
2018-04-17T04:17:09.967Z,30.20
2018-04-17T04:19:03.400Z,28.30
2018-04-17T04:20:03.392Z,30.40
2018-04-17T04:21:56.315Z,28.50
2018-04-17T04:22:56.325Z,27.40
2018-04-17T04:24:49.261Z,28.70
2018-04-17T04:25:49.259Z,32.30
2018-04-17T04:27:42.191Z,28.60
2018-04-17T04:28:42.184Z,30.30
2018-04-17T04:30:35.115Z,28.70
2018-04-17T04:31:35.116Z,28.40
2018-04-17T04:33:28.059Z,29.60
2018-04-17T04:34:28.051Z,34.90
2018-04-17T04:36:20.971Z,28.80
2018-04-17T04:37:20.983Z,29.90
2018-04-17T04:39:13.923Z,28.20
2018-04-17T04:40:13.916Z,32.70
2018-04-17T04:42:06.840Z,32.80
2018-04-17T04:43:06.848Z,35.40
2018-04-17T04:44:59.790Z,32.80
2018-04-17T04:45:59.780Z,30.50
2018-04-17T04:47:52.723Z,33.90
2018-04-17T04:48:52.719Z,35.60
2018-04-17T04:50:45.633Z,30.50
2018-04-17T04:51:45.645Z,37.10
2018-04-17T04:53:38.585Z,30.70
2018-04-17T04:54:38.579Z,31.00
2018-04-17T04:56:31.505Z,31.10
2018-04-17T04:57:31.512Z,34.50
2018-04-17T04:59:24.452Z,32.40
2018-04-17T05:00:24.444Z,36.00
2018-04-17T05:02:17.366Z,35.00
2018-04-17T05:03:17.378Z,38.50
2018-04-17T05:05:10.315Z,30.30
2018-04-17T05:06:10.311Z,32.20
2018-04-17T05:08:03.250Z,35.40
2018-04-17T05:09:03.244Z,36.70
2018-04-17T05:10:56.168Z,37.50
2018-04-17T05:11:56.179Z,35.30
2018-04-17T05:13:49.116Z,31.30
2018-04-17T05:14:49.113Z,33.20
2018-04-17T05:16:42.041Z,36.20
2018-04-17T05:17:42.051Z,34.60
2018-04-17T05:19:34.996Z,36.40
2018-04-17T05:20:34.994Z,35.20
2018-04-17T05:22:27.913Z,32.40
2018-04-17T05:23:27.932Z,30.00
2018-04-17T05:25:20.921Z,31.90
2018-04-17T05:26:20.876Z,31.50
2018-04-17T05:28:13.805Z,30.70
2018-04-17T05:29:13.803Z,28.20
2018-04-17T05:31:06.771Z,30.80
2018-04-17T05:32:06.741Z,32.00
2018-04-17T05:33:59.687Z,34.60
2018-04-17T05:34:59.679Z,31.20
2018-04-17T05:36:52.599Z,32.70
2018-04-17T05:37:52.617Z,31.70
2018-04-17T05:39:45.557Z,34.80
2018-04-17T05:40:45.552Z,33.60
2018-04-17T05:42:38.474Z,28.70
2018-04-17T05:43:38.488Z,33.50
2018-04-17T05:45:31.444Z,36.30
2018-04-17T05:46:31.418Z,34.80
2018-04-17T05:48:24.413Z,34.10
2018-04-17T05:49:24.366Z,30.30
2018-04-17T05:51:17.341Z,34.00
2018-04-17T05:52:17.298Z,31.50
2018-04-17T05:54:10.292Z,32.20
2018-04-17T05:55:10.241Z,33.00
2018-04-17T05:57:03.162Z,33.40
2018-04-17T05:58:03.172Z,29.70
2018-04-17T05:59:56.129Z,29.80
2018-04-17T06:00:56.123Z,32.10
2018-04-17T06:02:49.095Z,33.80
2018-04-17T06:03:49.056Z,29.10
2018-04-17T06:05:42.500Z,31.60
2018-04-17T06:06:42.496Z,30.20
2018-04-17T06:08:35.506Z,34.30
2018-04-17T06:09:35.488Z,34.60
2018-04-17T06:11:28.464Z,32.70
2018-04-17T06:12:28.451Z,36.10
2018-04-17T06:14:21.403Z,33.00
2018-04-17T06:15:21.398Z,36.20
2018-04-17T06:17:14.330Z,33.90
2018-04-17T06:18:14.348Z,36.00
2018-04-17T06:20:07.309Z,31.50
2018-04-17T06:21:07.304Z,35.70
2018-04-17T06:23:00.240Z,28.20
2018-04-17T06:24:00.252Z,32.10
2018-04-17T06:25:53.194Z,34.50
2018-04-17T06:26:53.197Z,32.40
2018-04-17T06:28:46.146Z,31.90
2018-04-17T06:29:46.138Z,30.30
2018-04-17T06:31:39.061Z,30.40
2018-04-17T06:32:39.078Z,28.10
2018-04-17T06:34:32.028Z,28.10
2018-04-17T06:35:32.027Z,30.80
2018-04-17T06:37:24.957Z,28.20
2018-04-17T06:38:24.976Z,26.70
2018-04-17T06:40:17.923Z,26.90
2018-04-17T06:41:17.928Z,29.10
2018-04-17T06:43:10.855Z,26.60
2018-04-17T06:44:10.868Z,29.70
2018-04-17T06:46:03.871Z,35.50
2018-04-17T06:47:03.821Z,28.90
2018-04-17T06:48:56.789Z,26.30
2018-04-17T06:49:56.779Z,25.90
2018-04-17T06:51:49.718Z,29.00
2018-04-17T06:52:49.783Z,26.80
2018-04-17T06:54:42.698Z,26.60
2018-04-17T06:55:42.701Z,26.40
2018-04-17T06:57:35.629Z,30.20
2018-04-17T06:58:35.646Z,30.10
2018-04-17T07:00:28.638Z,31.60
2018-04-17T07:01:28.601Z,27.60
2018-04-17T07:03:21.540Z,26.40
2018-04-17T07:04:21.561Z,25.50
2018-04-17T07:06:14.520Z,29.20
2018-04-17T07:07:14.520Z,29.10
2018-04-17T07:09:07.473Z,32.40
2018-04-17T07:10:07.476Z,29.60
2018-04-17T07:12:00.428Z,31.30
2018-04-17T07:13:00.441Z,30.50
2018-04-17T07:14:53.389Z,29.40
2018-04-17T07:15:53.390Z,27.10
2018-04-17T07:17:46.330Z,27.20
2018-04-17T07:18:46.352Z,27.40
2018-04-17T07:20:39.353Z,25.80
2018-04-17T07:21:39.374Z,28.20
2018-04-17T07:23:32.249Z,29.00
2018-04-17T07:24:32.271Z,27.20
2018-04-17T07:26:25.235Z,31.60
2018-04-17T07:27:25.236Z,29.60
2018-04-17T07:29:18.174Z,32.90
2018-04-17T07:30:18.192Z,29.40
2018-04-17T07:32:11.147Z,27.50
2018-04-17T07:33:11.151Z,31.90
2018-04-17T07:35:04.106Z,27.60
2018-04-17T07:36:04.111Z,31.20
2018-04-17T07:37:57.047Z,30.10
2018-04-17T07:38:57.065Z,31.20
2018-04-17T07:40:50.025Z,29.10
2018-04-17T07:41:50.028Z,28.70
2018-04-17T07:43:42.966Z,30.40
2018-04-17T07:44:42.990Z,31.80
2018-04-17T07:46:35.943Z,33.30
2018-04-17T07:47:35.947Z,32.60
2018-04-17T07:49:28.887Z,29.80
2018-04-17T07:50:28.916Z,32.60
2018-04-17T07:52:21.865Z,32.90
2018-04-17T07:53:21.871Z,31.10
2018-04-17T07:55:14.850Z,34.70
2018-04-17T07:56:14.831Z,30.80
2018-04-17T07:58:07.774Z,30.30
2018-04-17T07:59:07.788Z,32.70
2018-04-17T08:01:00.794Z,33.00
2018-04-17T08:02:00.758Z,30.20
2018-04-17T08:03:53.698Z,29.30
2018-04-17T08:04:53.717Z,32.30
2018-04-17T08:06:46.777Z,32.10
2018-04-17T08:07:46.774Z,30.20
2018-04-17T08:09:39.809Z,29.00
2018-04-17T08:10:39.832Z,34.50
2018-04-17T08:12:32.884Z,31.90
2018-04-17T08:13:32.885Z,28.60
2018-04-17T08:15:25.940Z,28.50
2018-04-17T08:16:25.946Z,30.90
2018-04-17T08:18:18.974Z,30.00
2018-04-17T08:19:18.993Z,30.40
2018-04-17T08:21:12.057Z,27.60
2018-04-17T08:22:12.051Z,28.80
2018-04-17T08:24:05.085Z,28.10
2018-04-17T08:25:05.104Z,28.10
2018-04-17T08:26:58.159Z,28.50
2018-04-17T08:27:58.201Z,27.70
2018-04-17T08:29:51.201Z,28.70
2018-04-17T08:30:51.211Z,30.30
2018-04-17T08:32:44.273Z,27.00
2018-04-17T08:33:44.269Z,32.90
2018-04-17T08:35:37.328Z,31.30
2018-04-17T08:36:37.325Z,28.40
2018-04-17T08:38:30.362Z,28.80
2018-04-17T08:39:30.378Z,31.80
2018-04-17T08:41:23.437Z,29.90
2018-04-17T08:42:23.434Z,28.90
2018-04-17T08:44:16.472Z,28.80
2018-04-17T08:45:16.498Z,31.20
2018-04-17T08:47:09.549Z,28.10
2018-04-17T08:48:09.549Z,32.30
2018-04-17T08:50:02.583Z,30.30
2018-04-17T08:51:02.606Z,30.70
2018-04-17T08:52:55.660Z,26.60
2018-04-17T08:53:55.688Z,27.40
2018-04-17T08:55:48.715Z,30.30
2018-04-17T08:56:48.805Z,28.20
2018-04-17T08:58:41.769Z,28.90
2018-04-17T08:59:41.799Z,26.50
2018-04-17T09:01:34.836Z,29.20
2018-04-17T09:02:34.823Z,28.00
2018-04-17T09:04:27.898Z,24.60
2018-04-17T09:05:27.881Z,26.30
2018-04-17T09:07:20.971Z,26.10
2018-04-17T09:08:20.935Z,27.10
2018-04-17T09:10:14.005Z,29.10
2018-04-17T09:11:13.995Z,28.50
2018-04-17T09:13:07.074Z,29.80
2018-04-17T09:14:07.067Z,24.60
2018-04-17T09:16:00.126Z,31.90
2018-04-17T09:17:00.209Z,28.90
2018-04-17T09:18:53.239Z,28.50
2018-04-17T09:19:53.260Z,29.30
2018-04-17T09:21:46.322Z,28.40
2018-04-17T09:22:46.316Z,29.40
2018-04-17T09:24:39.352Z,24.80
2018-04-17T09:25:39.370Z,26.20
2018-04-17T09:27:32.481Z,27.50
2018-04-17T09:28:32.429Z,27.00
2018-04-17T09:30:25.466Z,20.90
2018-04-17T09:31:25.480Z,18.70
2018-04-17T09:33:18.439Z,22.90
2018-04-17T09:34:18.435Z,20.90
2018-04-17T09:36:12.016Z,25.20
2018-04-17T09:37:11.895Z,21.30
2018-04-17T09:39:04.828Z,22.50
2018-04-17T09:40:04.915Z,19.60
2018-04-17T09:41:58.299Z,21.10
2018-04-17T09:42:58.296Z,21.30
2018-04-17T09:44:51.234Z,14.60
2018-04-17T09:45:51.252Z,16.70
2018-04-17T09:47:44.531Z,18.90
2018-04-17T09:48:44.207Z,19.60
2018-04-17T09:50:37.202Z,21.40
2018-04-17T09:51:37.161Z,23.10
2018-04-17T09:53:30.137Z,24.50
2018-04-17T09:54:30.136Z,21.90
2018-04-17T09:56:23.201Z,23.20
2018-04-17T09:57:23.188Z,22.70
2018-04-17T09:59:16.225Z,22.40
2018-04-17T10:00:16.247Z,22.80
2018-04-17T10:02:09.302Z,17.90
2018-04-17T10:03:09.302Z,21.20
2018-04-17T10:05:02.347Z,15.60
2018-04-17T10:06:02.358Z,16.70
2018-04-17T10:07:55.418Z,15.20
2018-04-17T10:08:55.461Z,17.00
2018-04-17T10:10:48.455Z,20.40
2018-04-17T10:11:48.467Z,20.90
2018-04-17T10:13:41.930Z,18.10
2018-04-17T10:14:41.927Z,22.20
2018-04-17T10:16:34.988Z,17.40
2018-04-17T10:17:34.987Z,19.20
2018-04-17T10:19:28.022Z,15.80
2018-04-17T10:20:28.046Z,19.40
2018-04-17T10:22:21.101Z,18.80
2018-04-17T10:23:21.095Z,20.60
2018-04-17T10:25:14.132Z,14.90
2018-04-17T10:26:14.151Z,19.00
2018-04-17T10:28:07.208Z,15.50
2018-04-17T10:29:07.207Z,17.50
2018-04-17T10:31:00.242Z,17.60
2018-04-17T10:32:00.267Z,18.80
2018-04-17T10:33:53.331Z,19.00
2018-04-17T10:34:53.318Z,17.40
2018-04-17T10:36:46.375Z,19.10
2018-04-17T10:37:46.372Z,16.50
2018-04-17T10:39:39.458Z,18.40
2018-04-17T10:40:39.429Z,16.70
2018-04-17T10:42:32.484Z,17.00
2018-04-17T10:43:32.489Z,18.30
2018-04-17T10:45:25.522Z,17.10
2018-04-17T10:46:25.573Z,17.60
2018-04-17T10:48:18.598Z,15.30
2018-04-17T10:49:18.593Z,15.10
2018-04-17T10:51:11.633Z,18.90
2018-04-17T10:52:11.651Z,17.00
2018-04-17T10:54:04.713Z,17.20
2018-04-17T10:55:04.707Z,18.80
2018-04-17T10:56:57.764Z,16.50
2018-04-17T10:57:57.763Z,17.70
2018-04-17T10:59:50.819Z,15.30
2018-04-17T11:00:50.821Z,17.90
2018-04-17T11:02:43.878Z,15.60
2018-04-17T11:03:43.873Z,21.70
2018-04-17T11:05:36.810Z,18.50
2018-04-17T11:06:36.831Z,18.60
2018-04-17T11:08:29.883Z,18.50
2018-04-17T11:09:29.885Z,19.80
2018-04-17T11:11:22.920Z,18.70
2018-04-17T11:12:22.938Z,17.70
2018-04-17T11:14:16.010Z,20.90
2018-04-17T11:15:15.997Z,23.20
2018-04-17T11:17:09.028Z,18.20
2018-04-17T11:18:09.052Z,20.40
2018-04-17T11:20:02.111Z,17.70
2018-04-17T11:21:02.107Z,19.00
2018-04-17T11:22:55.060Z,17.10
2018-04-17T11:23:55.067Z,18.10
2018-04-17T11:25:48.004Z,18.80
2018-04-17T11:26:48.023Z,18.80
2018-04-17T11:28:40.979Z,18.70
2018-04-17T11:29:40.980Z,15.70
2018-04-17T11:31:33.914Z,20.10
2018-04-17T11:32:33.935Z,16.80
2018-04-17T11:34:26.891Z,18.30
2018-04-17T11:35:26.894Z,16.90
2018-04-17T11:37:19.827Z,16.30
2018-04-17T11:38:19.855Z,18.40
2018-04-17T11:40:12.806Z,19.50
2018-04-17T11:41:12.807Z,19.70
2018-04-17T11:43:05.868Z,19.10
2018-04-17T11:44:05.833Z,20.90
2018-04-17T11:45:58.767Z,19.60
2018-04-17T11:46:58.785Z,18.10
2018-04-17T11:48:51.904Z,19.70
2018-04-17T11:49:51.750Z,19.00
2018-04-17T11:51:44.799Z,19.20
2018-04-17T11:52:44.822Z,17.40
2018-04-17T11:54:37.767Z,17.00
2018-04-17T11:55:37.777Z,18.50
2018-04-17T11:57:30.711Z,20.60
2018-04-17T11:58:30.729Z,20.70
2018-04-17T12:00:23.680Z,18.00
2018-04-17T12:01:23.680Z,17.40
2018-04-17T12:03:16.636Z,18.70
2018-04-17T12:04:16.635Z,17.80
2018-04-17T12:06:09.575Z,17.10
2018-04-17T12:07:09.597Z,17.70
2018-04-17T12:09:02.551Z,19.70
2018-04-17T12:10:02.555Z,19.60
2018-04-17T12:11:55.497Z,18.90
2018-04-17T12:12:55.515Z,20.20
2018-04-17T12:14:48.474Z,18.00
2018-04-17T12:15:48.477Z,19.20
2018-04-17T12:17:41.910Z,19.00
2018-04-17T12:18:41.928Z,19.40
2018-04-17T12:20:34.888Z,19.80
2018-04-17T12:21:34.884Z,21.60
2018-04-17T12:23:27.844Z,19.30
2018-04-17T12:24:27.842Z,18.50
2018-04-17T12:26:20.779Z,20.00
2018-04-17T12:27:20.803Z,18.50
2018-04-17T12:29:13.759Z,16.60
2018-04-17T12:30:13.759Z,18.60
2018-04-17T12:32:06.696Z,19.90
2018-04-17T12:33:06.716Z,17.60
2018-04-17T12:34:59.675Z,19.20
2018-04-17T12:35:59.673Z,19.30
2018-04-17T12:37:53.112Z,20.20
2018-04-17T12:38:53.129Z,18.20
2018-04-17T12:40:46.587Z,17.10
2018-04-17T12:41:46.589Z,19.90
2018-04-17T12:43:39.549Z,18.30
2018-04-17T12:44:39.543Z,19.40
2018-04-17T12:46:32.481Z,20.60
2018-04-17T12:47:32.503Z,19.30
2018-04-17T12:49:25.480Z,20.50
2018-04-17T12:50:25.463Z,20.60
2018-04-17T12:52:18.398Z,22.00
2018-04-17T12:53:18.419Z,21.60
2018-04-17T12:55:11.378Z,22.00
2018-04-17T12:56:11.377Z,21.80
2018-04-17T12:58:04.317Z,20.40
2018-04-17T12:59:04.337Z,23.20
2018-04-17T13:00:57.302Z,20.70
2018-04-17T13:01:57.294Z,23.20
2018-04-17T13:03:50.259Z,23.90
2018-04-17T13:04:50.257Z,19.60
2018-04-17T13:05:50.279Z,18.40
2018-04-17T13:06:50.307Z,20.60
2018-04-17T13:07:50.348Z,20.70
2018-04-17T13:08:50.363Z,22.90
2018-04-17T13:09:50.384Z,21.20
2018-04-17T13:10:50.410Z,19.70
2018-04-17T13:11:50.436Z,20.90
2018-04-17T13:12:50.462Z,22.30
2018-04-17T13:13:50.487Z,21.20
2018-04-17T13:14:50.513Z,19.80
2018-04-17T13:15:50.540Z,21.00
2018-04-17T13:16:50.565Z,19.80
2018-04-17T13:17:50.594Z,23.50
2018-04-17T13:18:50.617Z,23.30
2018-04-17T13:19:50.644Z,19.50
2018-04-17T13:20:50.677Z,19.60
2018-04-17T13:21:50.695Z,18.90
2018-04-17T13:22:50.719Z,19.60
2018-04-17T13:23:50.752Z,20.20
2018-04-17T13:24:50.772Z,20.00
2018-04-17T13:25:50.799Z,22.50
2018-04-17T13:26:50.825Z,18.40
2018-04-17T13:27:50.851Z,20.40
2018-04-17T13:28:50.877Z,17.20
2018-04-17T13:29:50.923Z,19.70
2018-04-17T13:30:50.932Z,17.70
2018-04-17T13:31:50.958Z,20.60
2018-04-17T13:32:50.984Z,20.70
2018-04-17T13:33:51.004Z,18.20
2018-04-17T13:34:51.027Z,19.80
2018-04-17T13:35:51.060Z,21.60
2018-04-17T13:36:51.089Z,23.50
2018-04-17T13:37:51.109Z,19.90
2018-04-17T13:38:51.131Z,20.60
2018-04-17T13:39:51.163Z,20.80
2018-04-17T13:40:51.182Z,21.20
2018-04-17T13:41:51.206Z,22.00
2018-04-17T13:42:51.234Z,22.20
2018-04-17T13:43:51.262Z,20.20
2018-04-17T13:44:51.287Z,20.00
2018-04-17T13:45:51.310Z,23.50
2018-04-17T13:46:51.339Z,25.70
2018-04-17T13:47:51.416Z,21.70
2018-04-17T13:48:51.387Z,20.10
2018-04-17T13:49:51.414Z,19.90
2018-04-17T13:50:51.441Z,20.50
2018-04-17T13:51:51.490Z,21.90
2018-04-17T13:52:51.492Z,19.80
2018-04-17T13:53:51.519Z,23.10
2018-04-17T13:54:51.543Z,21.00
2018-04-17T13:55:51.570Z,22.00
2018-04-17T13:56:51.594Z,18.10
2018-04-17T13:57:51.619Z,18.30
2018-04-17T13:58:51.645Z,22.00
2018-04-17T13:59:51.673Z,19.30
2018-04-17T14:00:51.700Z,22.10
2018-04-17T14:01:51.729Z,21.60
2018-04-17T14:02:51.749Z,19.30
2018-04-17T14:03:51.781Z,20.70
2018-04-17T14:04:51.807Z,20.20
2018-04-17T14:05:51.824Z,20.50
2018-04-17T14:06:51.852Z,18.10
2018-04-17T14:07:51.888Z,20.50
2018-04-17T14:08:51.904Z,21.60
2018-04-17T14:09:51.969Z,20.20
2018-04-17T14:10:51.957Z,20.60
2018-04-17T14:11:51.985Z,20.70
2018-04-17T14:12:52.009Z,20.20
2018-04-17T14:13:52.032Z,19.30
2018-04-17T14:14:52.058Z,19.60
2018-04-17T14:15:52.086Z,20.20
2018-04-17T14:16:52.107Z,22.00
2018-04-17T14:17:52.136Z,19.50
2018-04-17T14:18:52.162Z,18.50
2018-04-17T14:19:52.195Z,22.00
2018-04-17T14:20:52.214Z,19.30
2018-04-17T14:21:52.237Z,15.80
2018-04-17T14:22:52.265Z,20.80
2018-04-17T14:23:52.291Z,19.00
2018-04-17T14:24:52.317Z,20.90
2018-04-17T14:25:52.339Z,19.80
2018-04-17T14:26:52.371Z,19.50
2018-04-17T14:27:52.395Z,18.60
2018-04-17T14:28:52.419Z,20.30
2018-04-17T14:29:52.446Z,19.20
2018-04-17T14:30:52.472Z,18.80
2018-04-17T14:31:52.510Z,19.50
2018-04-17T14:32:52.527Z,20.10
2018-04-17T14:33:52.549Z,18.70
2018-04-17T14:34:52.573Z,21.60
2018-04-17T14:35:52.605Z,16.90
2018-04-17T14:36:52.631Z,19.80
2018-04-17T14:37:52.652Z,21.30
2018-04-17T14:38:52.676Z,20.10
2018-04-17T14:39:52.706Z,17.90
2018-04-17T14:40:52.732Z,18.40
2018-04-17T14:41:52.753Z,20.90
2018-04-17T14:42:52.782Z,20.80
2018-04-17T14:43:52.807Z,21.70
2018-04-17T14:44:52.834Z,22.30
2018-04-17T14:45:52.859Z,20.00
2018-04-17T14:46:52.884Z,21.60
2018-04-17T14:47:52.911Z,19.90
2018-04-17T14:48:52.937Z,20.70
2018-04-17T14:49:52.961Z,18.30
2018-04-17T14:50:52.989Z,20.60
2018-04-17T14:51:53.015Z,18.10
2018-04-17T14:52:53.041Z,18.70
2018-04-17T14:53:53.064Z,19.00
2018-04-17T14:54:53.091Z,19.40
2018-04-17T14:55:53.120Z,20.50
2018-04-17T14:56:53.143Z,19.90
2018-04-17T14:57:53.165Z,17.80
2018-04-17T14:58:53.198Z,18.90
2018-04-17T14:59:53.227Z,19.10
2018-04-17T15:00:53.251Z,16.50
2018-04-17T15:01:53.273Z,19.40
2018-04-17T15:02:53.306Z,16.20
2018-04-17T15:03:53.327Z,15.50
2018-04-17T15:04:53.351Z,16.40
2018-04-17T15:05:53.373Z,16.90
2018-04-17T15:06:53.403Z,14.50
2018-04-17T15:07:53.426Z,14.60
2018-04-17T15:08:53.473Z,18.10
2018-04-17T15:09:53.481Z,18.10
2018-04-17T15:10:53.508Z,16.00
2018-04-17T15:11:53.530Z,18.00
2018-04-17T15:12:53.560Z,20.10
2018-04-17T15:13:53.583Z,19.70
2018-04-17T15:14:53.612Z,17.00
2018-04-17T15:15:53.639Z,17.00
2018-04-17T15:16:53.671Z,17.50
2018-04-17T15:17:53.690Z,17.20
2018-04-17T15:18:53.719Z,19.80
2018-04-17T15:19:53.749Z,18.90
2018-04-17T15:20:53.767Z,18.80
2018-04-17T15:21:53.795Z,18.90
2018-04-17T15:22:53.820Z,17.60
2018-04-17T15:23:53.846Z,16.40
2018-04-17T15:24:53.869Z,20.90
2018-04-17T15:25:53.897Z,18.20
2018-04-17T15:26:53.925Z,18.50
2018-04-17T15:27:53.950Z,23.70
2018-04-17T15:28:53.979Z,21.70
2018-04-17T15:29:54.000Z,20.20
2018-04-17T15:30:54.026Z,20.80
2018-04-17T15:31:54.053Z,18.40
2018-04-17T15:32:54.082Z,20.80
2018-04-17T15:33:54.105Z,18.60
2018-04-17T15:34:54.135Z,17.00
2018-04-17T15:35:54.160Z,13.70
2018-04-17T15:36:54.193Z,14.40
2018-04-17T15:37:54.212Z,15.60
2018-04-17T15:38:54.239Z,14.30
2018-04-17T15:39:54.263Z,14.80
2018-04-17T15:40:54.292Z,16.20
2018-04-17T15:41:54.318Z,17.20
2018-04-17T15:42:54.344Z,17.10
2018-04-17T15:43:54.369Z,17.80
2018-04-17T15:44:54.399Z,16.60
2018-04-17T15:45:54.422Z,19.20
2018-04-17T15:46:54.445Z,16.70
2018-04-17T15:47:54.473Z,17.90
2018-04-17T15:48:54.503Z,15.30
2018-04-17T15:49:54.526Z,15.60
2018-04-17T15:50:54.553Z,13.60
2018-04-17T15:51:54.581Z,16.40
2018-04-17T15:52:54.606Z,15.20
2018-04-17T15:53:54.634Z,14.40
2018-04-17T15:54:54.661Z,15.10
2018-04-17T15:55:54.685Z,15.20
2018-04-17T15:56:54.710Z,12.90
2018-04-17T15:57:54.737Z,14.10
2018-04-17T15:58:54.762Z,16.80
2018-04-17T15:59:54.790Z,15.60
2018-04-17T16:00:54.812Z,15.00
2018-04-17T16:01:54.841Z,15.20
2018-04-17T16:02:54.868Z,15.10
2018-04-17T16:03:54.893Z,14.10
2018-04-17T16:04:54.918Z,13.00
2018-04-17T16:05:54.946Z,13.40
2018-04-17T16:06:54.972Z,14.30
2018-04-17T16:07:55.022Z,15.10
2018-04-17T16:08:55.022Z,16.10
2018-04-17T16:09:55.060Z,12.40
2018-04-17T16:10:55.077Z,16.10
2018-04-17T16:11:55.102Z,14.60
2018-04-17T16:12:55.162Z,14.50
2018-04-17T16:13:55.151Z,13.20
2018-04-17T16:14:55.181Z,14.70
2018-04-17T16:15:55.206Z,17.00
2018-04-17T16:16:55.229Z,12.30
2018-04-17T16:17:55.252Z,17.00
2018-04-17T16:18:55.281Z,15.30
2018-04-17T16:19:55.308Z,13.90
2018-04-17T16:20:55.334Z,17.40
2018-04-17T16:21:55.360Z,15.10
2018-04-17T16:22:55.386Z,15.50
2018-04-17T16:23:55.411Z,17.90
2018-04-17T16:24:55.442Z,14.30
2018-04-17T16:25:55.463Z,15.10
2018-04-17T16:26:55.486Z,13.60
2018-04-17T16:27:55.512Z,14.00
2018-04-17T16:28:55.538Z,14.70
2018-04-17T16:29:55.566Z,15.90
2018-04-17T16:30:55.593Z,16.60
2018-04-17T16:31:55.617Z,13.50
2018-04-17T16:32:55.643Z,14.80
2018-04-17T16:33:55.669Z,16.30
2018-04-17T16:34:55.694Z,16.80
2018-04-17T16:35:55.722Z,18.20
2018-04-17T16:36:55.748Z,18.60
2018-04-17T16:37:55.770Z,16.90
2018-04-17T16:38:55.797Z,17.70
2018-04-17T16:39:55.822Z,13.90
2018-04-17T16:40:55.850Z,15.40
2018-04-17T16:41:55.882Z,14.60
2018-04-17T16:42:55.902Z,15.60
2018-04-17T16:43:55.926Z,14.00
2018-04-17T16:44:55.954Z,16.20
2018-04-17T16:45:55.977Z,14.70
2018-04-17T16:46:56.005Z,17.60
2018-04-17T16:47:56.031Z,16.50
2018-04-17T16:48:56.054Z,15.80
2018-04-17T16:49:56.087Z,16.60
2018-04-17T16:50:56.110Z,17.30
2018-04-17T16:51:56.132Z,16.60
2018-04-17T16:52:56.161Z,12.40
2018-04-17T16:53:56.187Z,17.50
2018-04-17T16:54:56.209Z,15.90
2018-04-17T16:55:56.233Z,16.90
2018-04-17T16:56:56.262Z,17.10
2018-04-17T16:57:56.287Z,13.60
2018-04-17T16:58:56.312Z,13.50
2018-04-17T16:59:56.337Z,12.80
2018-04-17T17:00:56.363Z,12.60
2018-04-17T17:01:56.392Z,13.20
2018-04-17T17:02:56.420Z,15.40
2018-04-17T17:03:56.443Z,11.50
2018-04-17T17:04:56.467Z,14.20
2018-04-17T17:05:56.492Z,13.40
2018-04-17T17:06:56.514Z,13.40
2018-04-17T17:07:56.543Z,12.30
2018-04-17T17:08:56.569Z,14.10
2018-04-17T17:09:56.592Z,14.30
2018-04-17T17:10:56.619Z,15.20
2018-04-17T17:11:56.647Z,13.70
2018-04-17T17:12:56.669Z,13.40
2018-04-17T17:13:56.694Z,10.60
2018-04-17T17:14:56.720Z,13.70
2018-04-17T17:15:56.745Z,14.20
2018-04-17T17:16:56.770Z,14.00
2018-04-17T17:17:56.798Z,14.70
2018-04-17T17:18:56.821Z,16.90
2018-04-17T17:19:56.843Z,12.20
2018-04-17T17:20:56.872Z,15.90
2018-04-17T17:21:56.901Z,12.50
2018-04-17T17:22:56.921Z,15.80
2018-04-17T17:23:56.949Z,15.80
2018-04-17T17:24:56.975Z,13.30
2018-04-17T17:25:56.999Z,14.20
2018-04-17T17:26:57.022Z,12.40
2018-04-17T17:27:57.051Z,13.10
2018-04-17T17:28:57.077Z,12.70
2018-04-17T17:29:57.102Z,12.90
2018-04-17T17:30:57.125Z,11.90
2018-04-17T17:31:57.149Z,16.10
2018-04-17T17:32:57.176Z,15.60
2018-04-17T17:33:57.198Z,14.30
2018-04-17T17:34:57.229Z,15.30
2018-04-17T17:35:57.251Z,15.00
2018-04-17T17:36:57.276Z,16.80
2018-04-17T17:37:57.300Z,13.70
2018-04-17T17:38:57.324Z,15.90
2018-04-17T17:39:57.351Z,15.00
2018-04-17T17:40:57.375Z,14.40
2018-04-17T17:41:57.405Z,15.20